createdAt,value
2022-10-05T00:02:41.486Z,99274.97
2022-10-05T00:05:34.244Z,99278.53
2022-10-05T00:08:25.142Z,99270.09
2022-10-05T00:11:13.987Z,99263.16
2022-10-05T00:14:07.339Z,99269.78
2022-10-05T00:16:56.874Z,99269.78
2022-10-05T00:19:46.563Z,99272.38
2022-10-05T00:22:35.314Z,99275.28
2022-10-05T00:25:23.638Z,99264.94
2022-10-05T00:28:27.948Z,99265.75
2022-10-05T00:31:25.192Z,99267.34
2022-10-05T00:34:13.474Z,99270.09
2022-10-05T00:37:01.456Z,99264.63
2022-10-05T00:39:49.630Z,99273.72
2022-10-05T00:43:07.464Z,99272.75
2022-10-05T00:46:07.689Z,99271.59
2022-10-05T00:49:01.977Z,99272.25
2022-10-05T00:52:22.252Z,99277.25
2022-10-05T00:55:30.312Z,99272.38
2022-10-05T00:58:35.307Z,99276.22
2022-10-05T01:01:26.036Z,99279.34
2022-10-05T01:04:21.083Z,99265.38
2022-10-05T01:07:39.983Z,99277.97
2022-10-05T01:11:04.100Z,99276.84
2022-10-05T01:14:16.948Z,99278.63
2022-10-05T01:17:04.780Z,99277.19
2022-10-05T01:20:11.483Z,99280.13
2022-10-05T01:23:11.709Z,99283.53
2022-10-05T01:26:24.936Z,99285.94
2022-10-05T01:29:31.290Z,99286.75
2022-10-05T01:32:31.244Z,99289.16
2022-10-05T01:35:39.002Z,99286.56
2022-10-05T01:38:52.725Z,99287.56
2022-10-05T01:42:06.632Z,99284.97
2022-10-05T01:45:14.179Z,99284.81
2022-10-05T01:48:22.524Z,99281.22
2022-10-05T01:51:31.417Z,99286.56
2022-10-05T01:54:40.204Z,99281.75
2022-10-05T01:57:46.641Z,99277.22
2022-10-05T02:00:54.853Z,99285.94
2022-10-05T02:04:18.678Z,99280.66
2022-10-05T02:07:35.143Z,99283.09
2022-10-05T02:10:32.857Z,99286.34
2022-10-05T02:13:58.642Z,99288.16
2022-10-05T02:16:49.529Z,99289.94
2022-10-05T02:19:48.814Z,99287.50
2022-10-05T02:22:45.981Z,99289.94
2022-10-05T02:25:38.984Z,99286.34
2022-10-05T02:28:47.731Z,99287.97
2022-10-05T02:31:45.225Z,99284.91
2022-10-05T02:34:38.857Z,99290.25
2022-10-05T02:37:56.375Z,99291.25
2022-10-05T02:41:02.868Z,99295.63
2022-10-05T02:44:05.749Z,99288.38
2022-10-05T02:47:19.784Z,99288.72
2022-10-05T02:50:46.909Z,99290.50
2022-10-05T02:53:44.723Z,99286.47
2022-10-05T02:56:52.545Z,99292.75
2022-10-05T02:59:48.058Z,99297.75
2022-10-05T03:02:44.561Z,99296.97
2022-10-05T03:05:40.392Z,99297.19
2022-10-05T03:08:35.193Z,99302.22
2022-10-05T03:11:46.926Z,99305.47
2022-10-05T03:15:01.964Z,99308.59
2022-10-05T03:18:08.802Z,99310.84
2022-10-05T03:21:15.627Z,99311.66
2022-10-05T03:24:45.009Z,99307.16
2022-10-05T03:27:42.325Z,99309.91
2022-10-05T03:30:37.501Z,99318.16
2022-10-05T03:33:29.037Z,99317.34
2022-10-05T03:36:37.533Z,99311.53
2022-10-05T03:39:42.057Z,99315.09
2022-10-05T03:42:37.446Z,99318.97
2022-10-05T03:45:30.419Z,99313.28
2022-10-05T03:48:33.743Z,99326.88
2022-10-05T03:51:51.669Z,99331.25
2022-10-05T03:55:03.492Z,99322.84
2022-10-05T03:57:56.726Z,99316.38
2022-10-05T04:00:52.355Z,99319.59
2022-10-05T04:03:48.367Z,99314.44
2022-10-05T04:06:42.755Z,99327.69
2022-10-05T04:09:37.058Z,99323.13
2022-10-05T04:12:49.561Z,99320.53
2022-10-05T04:15:46.333Z,99324.59
2022-10-05T04:18:43.837Z,99330.59
2022-10-05T04:21:52.861Z,99328.78
2022-10-05T04:25:00.778Z,99325.88
2022-10-05T04:28:01.441Z,99330.53
2022-10-05T04:30:52.424Z,99335.25
2022-10-05T04:33:41.007Z,99341.25
2022-10-05T04:36:39.070Z,99344.63
2022-10-05T04:39:54.164Z,99343.13
2022-10-05T04:42:51.941Z,99345.06
2022-10-05T04:45:49.967Z,99337.94
2022-10-05T04:49:08.727Z,99340.34
2022-10-05T04:52:22.708Z,99347.81
2022-10-05T04:55:23.225Z,99347.00
2022-10-05T04:58:41.531Z,99347.28
2022-10-05T05:02:01.683Z,99346.63
2022-10-05T05:05:01.588Z,99338.97
2022-10-05T05:08:17.303Z,99345.13
2022-10-05T05:12:04.015Z,99348.81
2022-10-05T05:15:13.612Z,99344.72
2022-10-05T05:18:01.750Z,99344.72
2022-10-05T05:21:28.940Z,99348.28
2022-10-05T05:24:47.298Z,99354.41
2022-10-05T05:27:51.202Z,99347.88
2022-10-05T05:30:50.545Z,99346.25
2022-10-05T05:33:59.151Z,99346.06
2022-10-05T05:37:04.580Z,99345.56
2022-10-05T05:39:59.424Z,99345.41
2022-10-05T05:43:01.935Z,99345.72
2022-10-05T05:46:07.339Z,99346.94
2022-10-05T05:48:58.061Z,99346.25
2022-10-05T05:51:55.623Z,99357.69
2022-10-05T05:54:57.887Z,99369.06
2022-10-05T05:58:04.483Z,99368.56
2022-10-05T06:00:52.594Z,99365.06
2022-10-05T06:03:47.367Z,99357.63
2022-10-05T06:06:41.983Z,99356.69
2022-10-05T06:10:30.024Z,99366.25
2022-10-05T06:13:30.705Z,99363.66
2022-10-05T06:16:36.872Z,99366.69
2022-10-05T06:19:28.294Z,99372.00
2022-10-05T06:22:47.902Z,99376.94
2022-10-05T06:26:08.264Z,99375.13
2022-10-05T06:29:04.045Z,99378.72
2022-10-05T06:32:48.848Z,99383.97
2022-10-05T06:35:46.284Z,99386.41
2022-10-05T06:39:08.911Z,99382.03
2022-10-05T06:42:20.158Z,99392.63
2022-10-05T06:46:05.579Z,99394.44
2022-10-05T06:49:33.881Z,99395.53
2022-10-05T06:53:29.302Z,99398.06
2022-10-05T06:56:26.668Z,99398.50
2022-10-05T06:59:31.722Z,99401.72
2022-10-05T07:02:32.673Z,99413.13
2022-10-05T07:05:47.918Z,99416.94
2022-10-05T07:08:35.831Z,99422.78
2022-10-05T07:11:58.509Z,99426.38
2022-10-05T07:14:56.049Z,99424.03
2022-10-05T07:17:49.442Z,99428.53
2022-10-05T07:21:12.896Z,99429.78
2022-10-05T07:24:23.415Z,99436.69
2022-10-05T07:27:21.294Z,99438.28
2022-10-05T07:30:14.845Z,99442.53
2022-10-05T07:33:33.681Z,99437.78
2022-10-05T07:37:00.606Z,99437.94
2022-10-05T07:40:10.028Z,99446.53
2022-10-05T07:43:35.933Z,99450.72
2022-10-05T07:46:54.330Z,99449.69
2022-10-05T07:49:49.952Z,99451.19
2022-10-05T07:52:41.466Z,99455.03
2022-10-05T07:55:44.438Z,99459.38
2022-10-05T07:58:43.245Z,99461.66
2022-10-05T08:01:36.799Z,99462.38
2022-10-05T08:04:32.069Z,99466.94
2022-10-05T08:07:20.411Z,99469.28
2022-10-05T08:10:14.499Z,99463.84
2022-10-05T08:13:05.236Z,99477.31
2022-10-05T08:16:00.451Z,99480.59
2022-10-05T08:19:03.177Z,99486.09
2022-10-05T08:22:10.054Z,99487.47
2022-10-05T08:25:04.327Z,99493.47
2022-10-05T08:28:04.024Z,99487.25
2022-10-05T08:31:15.329Z,99494.34
2022-10-05T08:34:31.117Z,99494.09
2022-10-05T08:37:23.926Z,99494.19
2022-10-05T08:40:37.531Z,99495.63
2022-10-05T08:43:45.012Z,99501.81
2022-10-05T08:47:10.678Z,99501.47
2022-10-05T08:54:16.988Z,99506.09
2022-10-05T08:57:35.932Z,99507.97
2022-10-05T09:00:26.039Z,99509.16
2022-10-05T09:03:36.590Z,99508.88
2022-10-05T09:06:33.635Z,99511.41
2022-10-05T09:09:40.737Z,99515.66
2022-10-05T09:12:47.968Z,99521.88
2022-10-05T09:16:06.387Z,99518.88
2022-10-05T09:19:19.109Z,99524.88
2022-10-05T09:22:34.115Z,99532.22
2022-10-05T09:25:41.924Z,99537.66
2022-10-05T09:29:08.435Z,99531.13
2022-10-05T09:32:35.485Z,99537.88
2022-10-05T09:35:38.738Z,99548.56
2022-10-05T09:38:32.463Z,99543.31
2022-10-05T09:41:48.305Z,99546.63
2022-10-05T09:45:21.330Z,99551.00
2022-10-05T09:48:43.272Z,99546.88
2022-10-05T09:52:00.523Z,99545.34
2022-10-05T09:55:02.987Z,99544.97
2022-10-05T09:57:59.853Z,99547.38
2022-10-05T10:01:29.095Z,99553.28
2022-10-05T10:04:37.562Z,99556.94
2022-10-05T10:07:40.545Z,99566.00
2022-10-05T10:10:48.606Z,99560.84
2022-10-05T10:13:45.812Z,99565.25
2022-10-05T10:17:03.124Z,99566.16
2022-10-05T10:19:58.801Z,99574.44
2022-10-05T10:23:09.978Z,99569.63
2022-10-05T10:26:13.935Z,99573.59
2022-10-05T10:29:22.078Z,99576.28
2022-10-05T10:32:29.167Z,99573.41
2022-10-05T10:35:37.103Z,99579.44
2022-10-05T10:38:47.291Z,99583.81
2022-10-05T10:41:54.419Z,99580.63
2022-10-05T10:45:01.007Z,99584.94
2022-10-05T10:47:51.865Z,99588.97
2022-10-05T10:50:52.455Z,99587.13
2022-10-05T10:53:54.067Z,99581.03
2022-10-05T10:57:26.813Z,99593.25
2022-10-05T11:00:37.891Z,99590.84
2022-10-05T11:03:39.164Z,99590.69
2022-10-05T11:06:44.912Z,99595.94
2022-10-05T11:10:30.158Z,99594.06
2022-10-05T11:13:41.975Z,99602.72
2022-10-05T11:16:44.875Z,99608.47
2022-10-05T11:19:40.107Z,99619.75
2022-10-05T11:22:40.228Z,99610.06
2022-10-05T11:25:54.483Z,99617.72
2022-10-05T11:29:01.895Z,99629.28
2022-10-05T11:32:14.322Z,99633.06
2022-10-05T11:35:27.552Z,99633.94
2022-10-05T11:38:50.591Z,99638.53
2022-10-05T11:41:53.764Z,99636.47
2022-10-05T11:45:07.772Z,99650.41
2022-10-05T11:48:20.589Z,99646.34
2022-10-05T11:51:46.508Z,99659.44
2022-10-05T11:55:06.053Z,99651.81
2022-10-05T11:57:51.581Z,99652.56
2022-10-05T12:00:44.567Z,99655.63
2022-10-05T12:03:41.664Z,99658.00
2022-10-05T12:06:35.854Z,99659.00
2022-10-05T12:09:36.896Z,99675.94
2022-10-05T12:12:29.654Z,99685.50
2022-10-05T12:15:43.438Z,99680.03
2022-10-05T12:18:31.372Z,99686.00
2022-10-05T12:21:34.518Z,99679.84
2022-10-05T12:24:38.003Z,99682.16
2022-10-05T12:27:31.406Z,99686.50
2022-10-05T12:30:50.262Z,99691.72
2022-10-05T12:34:04.523Z,99690.13
2022-10-05T12:37:04.687Z,99693.94
2022-10-05T12:40:02.647Z,99705.03
2022-10-05T12:42:59.136Z,99713.63
2022-10-05T12:46:01.353Z,99695.94
2022-10-05T12:49:22.442Z,99690.72
2022-10-05T12:52:43.470Z,99711.22
2022-10-05T12:56:04.275Z,99707.66
2022-10-05T12:58:56.136Z,99713.03
2022-10-05T13:01:56.675Z,99708.44
2022-10-05T13:05:12.926Z,99710.56
2022-10-05T13:08:24.484Z,99702.78
2022-10-05T13:11:36.380Z,99706.25
2022-10-05T13:14:39.520Z,99706.88
2022-10-05T13:17:58.946Z,99701.00
2022-10-05T13:21:19.505Z,99704.31
2022-10-05T13:24:19.689Z,99701.47
2022-10-05T13:27:13.697Z,99697.00
2022-10-05T13:30:17.038Z,99699.97
2022-10-05T13:33:15.468Z,99712.94
2022-10-05T13:36:18.780Z,99717.09
2022-10-05T13:39:46.035Z,99723.16
2022-10-05T13:43:00.214Z,99725.03
2022-10-05T13:46:26.120Z,99728.94
2022-10-05T13:49:22.231Z,99726.25
2022-10-05T13:52:28.843Z,99731.63
2022-10-05T13:55:50.124Z,99732.56
2022-10-05T13:59:03.254Z,99730.13
2022-10-05T14:02:05.132Z,99740.88
2022-10-05T14:05:21.923Z,99737.81
2022-10-05T14:08:17.801Z,99739.75
2022-10-05T14:11:40.141Z,99743.66
2022-10-05T14:14:30.002Z,99740.41
2022-10-05T14:17:37.325Z,99751.75
2022-10-05T14:20:31.869Z,99742.00
2022-10-05T14:23:28.269Z,99750.16
2022-10-05T14:26:25.910Z,99758.94
2022-10-05T14:29:14.583Z,99762.03
2022-10-05T14:32:11.667Z,99761.22
2022-10-05T14:35:15.483Z,99771.72
2022-10-05T14:38:18.721Z,99767.31
2022-10-05T14:41:20.405Z,99771.19
2022-10-05T14:44:14.110Z,99772.19
2022-10-05T14:47:21.010Z,99772.63
2022-10-05T14:50:29.847Z,99782.53
2022-10-05T14:53:21.542Z,99782.03
2022-10-05T14:56:35.520Z,99786.38
2022-10-05T14:59:26.224Z,99785.06
2022-10-05T15:02:45.205Z,99800.41
2022-10-05T15:05:45.553Z,99791.78
2022-10-05T15:08:39.226Z,99799.84
2022-10-05T15:12:05.528Z,99797.31
2022-10-05T15:15:06.789Z,99803.47
2022-10-05T15:18:00.359Z,99810.31
2022-10-05T15:21:14.404Z,99815.25
2022-10-05T15:24:17.786Z,99818.00
2022-10-05T15:27:30.104Z,99819.31
2022-10-05T15:30:18.900Z,99826.59
2022-10-05T15:33:27.915Z,99824.47
2022-10-05T15:36:22.214Z,99830.75
2022-10-05T15:39:11.006Z,99832.03
2022-10-05T15:42:18.546Z,99845.59
2022-10-05T15:45:38.200Z,99841.69
2022-10-05T15:48:43.738Z,99841.88
2022-10-05T15:52:02.416Z,99843.28
2022-10-05T15:55:23.915Z,99849.75
2022-10-05T15:58:35.603Z,99842.28
2022-10-05T16:01:35.983Z,99847.09
2022-10-05T16:04:39.126Z,99843.19
2022-10-05T16:08:02.037Z,99845.16
2022-10-05T16:10:49.850Z,99857.63
2022-10-05T16:13:52.684Z,99853.09
2022-10-05T16:17:17.397Z,99861.88
2022-10-05T16:20:21.037Z,99858.44
2022-10-05T16:23:32.140Z,99858.44
2022-10-05T16:26:32.752Z,99851.34
2022-10-05T16:29:33.393Z,99857.19
2022-10-05T16:32:27.762Z,99851.00
2022-10-05T16:35:26.596Z,99857.53
2022-10-05T16:38:34.658Z,99855.75
2022-10-05T16:41:41.244Z,99860.78
2022-10-05T16:44:44.831Z,99870.16
2022-10-05T16:47:35.879Z,99871.47
2022-10-05T16:50:28.787Z,99869.84
2022-10-05T16:53:25.974Z,99861.34
2022-10-05T16:56:19.870Z,99862.50
2022-10-05T16:59:25.410Z,99869.00
2022-10-05T17:02:25.487Z,99882.84
2022-10-05T17:05:41.690Z,99884.78
2022-10-05T17:08:49.723Z,99879.28
2022-10-05T17:12:36.345Z,99887.06
2022-10-05T17:15:53.183Z,99885.56
2022-10-05T17:19:19.611Z,99891.28
2022-10-05T17:22:29.225Z,99885.63
2022-10-05T17:25:49.720Z,99889.78
2022-10-05T17:28:57.894Z,99893.41
2022-10-05T17:32:09.885Z,99898.00
2022-10-05T17:35:04.210Z,99902.03
2022-10-05T17:38:31.044Z,99891.25
2022-10-05T17:41:22.744Z,99883.91
2022-10-05T17:44:16.357Z,99896.09
2022-10-05T17:47:08.376Z,99904.38
2022-10-05T17:50:18.550Z,99907.63
2022-10-05T17:53:54.056Z,99901.78
2022-10-05T17:56:47.941Z,99904.69
2022-10-05T17:59:55.993Z,99899.97
2022-10-05T18:02:43.899Z,99905.75
2022-10-05T18:05:31.843Z,99907.59
2022-10-05T18:08:28.943Z,99913.59
2022-10-05T18:11:29.030Z,99912.47
2022-10-05T18:14:23.200Z,99912.84
2022-10-05T18:17:13.219Z,99920.50
2022-10-05T18:20:26.557Z,99911.94
2022-10-05T18:23:23.932Z,99919.53
2022-10-05T18:26:59.655Z,99926.88
2022-10-05T18:30:16.059Z,99923.47
2022-10-05T18:33:24.391Z,99925.69
2022-10-05T18:36:37.675Z,99932.69
2022-10-05T18:39:56.082Z,99932.69
2022-10-05T18:43:10.414Z,99925.94
2022-10-05T18:46:41.121Z,99932.66
2022-10-05T18:49:58.565Z,99939.78
2022-10-05T18:53:09.142Z,99933.28
2022-10-05T18:56:16.547Z,99918.50
2022-10-05T18:59:25.961Z,99924.75
2022-10-05T19:02:48.001Z,99927.34
2022-10-05T19:05:58.749Z,99928.31
2022-10-05T19:09:20.658Z,99943.22
2022-10-05T19:12:55.568Z,99934.94
2022-10-05T19:16:34.426Z,99933.34
2022-10-05T19:19:51.411Z,99942.16
2022-10-05T19:23:23.120Z,99943.88
2022-10-05T19:26:23.746Z,99937.75
2022-10-05T19:29:53.357Z,99937.00
2022-10-05T19:32:59.766Z,99931.34
2022-10-05T19:36:21.792Z,99928.91
2022-10-05T19:39:21.611Z,99940.16
2022-10-05T19:42:44.930Z,99944.50
2022-10-05T19:45:39.993Z,99946.81
2022-10-05T19:48:43.140Z,99942.16
2022-10-05T19:51:49.669Z,99954.34
2022-10-05T19:54:42.774Z,99946.59
2022-10-05T19:57:32.686Z,99951.50
2022-10-05T20:00:49.007Z,99944.25
2022-10-05T20:03:38.281Z,99949.94
2022-10-05T20:06:27.168Z,99951.44
2022-10-05T20:09:21.010Z,99945.28
2022-10-05T20:12:11.731Z,99951.53
2022-10-05T20:15:37.151Z,99950.13
2022-10-05T20:19:08.991Z,99945.16
2022-10-05T20:21:59.328Z,99948.84
2022-10-05T20:24:52.725Z,99956.19
2022-10-05T20:27:41.276Z,99956.03
2022-10-05T20:30:31.272Z,99946.00
2022-10-05T20:33:19.671Z,99936.22
2022-10-05T20:36:08.730Z,99955.31
2022-10-05T20:39:18.877Z,99959.72
2022-10-05T20:42:09.014Z,99956.81
2022-10-05T20:44:58.182Z,99955.75
2022-10-05T20:47:47.468Z,99956.56
2022-10-05T20:50:35.664Z,99957.09
2022-10-05T20:53:26.262Z,99956.66
2022-10-05T20:56:14.402Z,99958.44
2022-10-05T20:59:02.779Z,99954.50
2022-10-05T21:01:51.237Z,99955.91
2022-10-05T21:04:41.479Z,99947.78
2022-10-05T21:07:31.357Z,99959.63
2022-10-05T21:10:19.170Z,99950.56
2022-10-05T21:13:07.235Z,99953.69
2022-10-05T21:15:56.825Z,99960.19
2022-10-05T21:18:47.965Z,99953.66
2022-10-05T21:21:37.391Z,99958.28
2022-10-05T21:24:25.558Z,99963.81
2022-10-05T21:27:13.394Z,99961.91
2022-10-05T21:30:01.550Z,99964.44
2022-10-05T21:32:51.742Z,99962.88
2022-10-05T21:35:39.717Z,99961.63
2022-10-05T21:38:29.221Z,99955.38
2022-10-05T21:41:18.335Z,99960.41
2022-10-05T21:44:06.887Z,99961.78
2022-10-05T21:46:57.107Z,99969.97
2022-10-05T21:49:45.138Z,99960.59
2022-10-05T21:52:35.673Z,99976.88
2022-10-05T21:55:23.861Z,99982.59
2022-10-05T21:58:14.669Z,99992.63
2022-10-05T22:01:03.620Z,99993.34
2022-10-05T22:03:52.548Z,99977.63
2022-10-05T22:06:40.864Z,99988.66
2022-10-05T22:09:30.088Z,100003.09
2022-10-05T22:12:20.221Z,99993.25
2022-10-05T22:15:09.698Z,99994.09
2022-10-05T22:17:59.306Z,99991.25
2022-10-05T22:20:48.010Z,99989.47
2022-10-05T22:23:41.862Z,99993.56
2022-10-05T22:26:30.655Z,99998.22
2022-10-05T22:29:20.920Z,100002.25
2022-10-05T22:32:10.481Z,100002.25
2022-10-05T22:34:58.647Z,100004.84
2022-10-05T22:37:46.710Z,100004.19
2022-10-05T22:40:36.361Z,100008.38
2022-10-05T22:43:27.657Z,100002.06
2022-10-05T22:46:16.421Z,100001.78
2022-10-05T22:49:04.596Z,100001.50
2022-10-05T22:51:53.365Z,99997.50
2022-10-05T22:54:41.571Z,100001.44
2022-10-05T22:57:38.353Z,100005.22
2022-10-05T23:00:40.342Z,100002.34
2022-10-05T23:03:35.555Z,100004.63
2022-10-05T23:06:27.821Z,100009.66
2022-10-05T23:09:16.103Z,100009.38
2022-10-05T23:12:04.603Z,100006.66
2022-10-05T23:14:52.789Z,100012.34
2022-10-05T23:17:41.628Z,100005.53
2022-10-05T23:20:31.352Z,99995.97
2022-10-05T23:23:19.961Z,99995.25
2022-10-05T23:26:10.254Z,100000.56
2022-10-05T23:28:58.916Z,100004.81
2022-10-05T23:31:47.368Z,100001.41
2022-10-05T23:34:36.203Z,100013.59
2022-10-05T23:37:27.153Z,100016.03
2022-10-05T23:40:17.881Z,100003.69
2022-10-05T23:43:07.283Z,100008.06
2022-10-05T23:45:59.404Z,100008.06
2022-10-05T23:48:49.291Z,100014.28
2022-10-05T23:51:38.123Z,100006.50
2022-10-05T23:54:26.664Z,100003.91
2022-10-05T23:57:19.878Z,100009.78
